Time;durP1;ratioP1;P1;durP2;ratioP2;P2;SDS_P1;SDS_P2;PMS_P1;PMS_P2;Temp;Humidity;BMP_temperature;BMP_pressure;BME280_temperature;BME280_humidity;BME280_pressure;Samples;Min_cycle;Max_cycle;Signal;HPM_P1;HPM_P2
2021/05/11 00:03:52;;;;;;;10.85;3.25;;;;;;;13.11;84.90;100740.88;10348974;28;20046;-73
2021/05/11 00:08:53;;;;;;;15.35;3.38;;;;;;;12.98;85.25;100714.44;10350134;28;20030;-73
2021/05/11 00:13:53;;;;;;;11.75;3.60;;;;;;;13.27;85.40;100758.81;10351602;28;20124;-77
2021/05/11 00:18:54;;;;;;;10.23;3.72;;;;;;;13.26;85.80;100762.69;10350997;28;20100;-74
2021/05/11 00:23:55;;;;;;;9.90;2.88;;;;;;;12.68;86.14;100686.34;10349742;28;20315;-74
2021/05/11 00:28:55;;;;;;;10.52;2.72;;;;;;;13.09;86.76;100767.63;10348406;28;20099;-73
2021/05/11 00:33:56;;;;;;;10.43;3.05;;;;;;;13.00;88.64;100756.31;10347019;28;20065;-73
2021/05/11 00:38:57;;;;;;;11.02;2.88;;;;;;;12.86;89.35;100748.88;10329045;28;20095;-74
2021/05/11 00:43:57;;;;;;;10.57;2.88;;;;;;;12.33;90.23;100675.25;10354063;28;20073;-75
2021/05/11 00:48:58;;;;;;;14.60;2.92;;;;;;;12.52;90.65;100704.81;10365051;28;20049;-73
2021/05/11 00:53:58;;;;;;;9.80;2.78;;;;;;;12.67;92.11;100739.03;10351651;28;20120;-77
2021/05/11 00:58:59;;;;;;;11.32;2.80;;;;;;;12.52;91.75;100715.69;10347715;28;20165;-78
2021/05/11 01:03:59;;;;;;;10.75;2.90;;;;;;;12.66;92.97;100742.91;10352015;28;20072;-73
2021/05/11 01:09:00;;;;;;;10.15;3.08;;;;;;;12.73;93.84;100752.25;10343940;28;20050;-74
2021/05/11 01:14:00;;;;;;;11.88;2.90;;;;;;;12.79;93.81;100748.03;10348310;28;20052;-73
2021/05/11 01:19:12;;;;;;;11.57;3.67;;;;;;;12.65;92.71;100725.09;10347284;28;20046;-74
2021/05/11 01:24:31;;;;;;;8.65;3.05;;;;;;;12.88;91.81;100764.75;10343146;28;20034;-77
2021/05/11 01:50:25;;;;;;;14.90;4.28;;;;;;;12.02;95.18;100721.41;10351736;28;20336;-73
2021/05/11 01:55:37;;;;;;;9.73;3.63;;;;;;;12.04;95.86;100750.81;10350515;28;20057;-73
2021/05/11 02:27:21;;;;;;;10.63;4.90;;;;;;;11.78;99.34;100744.34;10354566;28;20044;-73
2021/05/11 02:32:21;;;;;;;11.32;4.85;;;;;;;11.45;100.00;100709.91;10365375;28;20393;-74
2021/05/11 02:37:22;;;;;;;11.35;5.10;;;;;;;11.60;100.00;100748.78;10364257;28;20096;-74
2021/05/11 02:42:23;;;;;;;15.52;6.20;;;;;;;11.39;100.00;100717.56;10362315;28;20152;-74
2021/05/11 02:47:23;;;;;;;11.07;5.15;;;;;;;11.49;100.00;100742.44;10363985;28;20030;-73
2021/05/11 02:52:25;;;;;;;15.00;5.13;;;;;;;11.34;100.00;100730.66;10361227;28;20129;-71
2021/05/11 02:57:25;;;;;;;11.55;5.22;;;;;;;11.03;100.00;100699.28;10364495;28;20045;-72
2021/05/11 03:02:28;;;;;;;13.60;5.38;;;;;;;11.09;100.00;100730.31;10367552;28;20057;-72
2021/05/11 03:07:28;;;;;;;15.32;5.55;;;;;;;11.14;100.00;100732.69;10363611;28;20478;-76
2021/05/11 03:12:29;;;;;;;14.00;5.55;;;;;;;11.14;100.00;100744.28;10358975;28;20045;-75
2021/05/11 03:17:29;;;;;;;13.65;5.82;;;;;;;11.11;100.00;100738.84;10356147;28;20030;-75
2021/05/11 03:22:30;;;;;;;13.82;5.95;;;;;;;11.04;100.00;100734.09;10357124;28;20033;-73
2021/05/11 03:27:31;;;;;;;13.05;5.63;;;;;;;10.86;100.00;100739.22;10337680;28;20064;-75
2021/05/11 03:32:31;;;;;;;13.55;5.95;;;;;;;10.62;100.00;100712.59;10353282;28;20037;-74
2021/05/11 03:37:34;;;;;;;12.38;6.20;;;;;;;10.75;100.00;100744.50;10354693;28;20040;-73
2021/05/11 03:42:39;;;;;;;12.63;6.65;;;;;;;10.75;100.00;100738.31;10370693;28;20049;-73
2021/05/11 03:47:46;;;;;;;17.13;6.95;;;;;;;10.84;100.00;100746.94;10353128;28;20033;-73
2021/05/11 03:52:46;;;;;;;18.30;8.52;;;;;;;10.69;100.00;100718.13;10349024;28;20421;-73
2021/05/11 03:57:47;;;;;;;14.30;7.28;;;;;;;10.65;100.00;100722.69;10356013;28;20078;-74
2021/05/11 04:02:47;;;;;;;18.08;8.23;;;;;;;10.71;100.00;100735.53;10351484;28;20148;-74
2021/05/11 04:07:51;;;;;;;16.92;8.98;;;;;;;10.60;100.00;100734.56;10353813;28;20088;-75
2021/05/11 04:18:12;;;;;;;22.02;8.25;;;;;;;10.54;100.00;100726.00;10332155;28;20064;-73
2021/05/11 04:23:12;;;;;;;14.77;7.80;;;;;;;10.39;100.00;100705.28;10353783;28;20057;-75
2021/05/11 04:28:13;;;;;;;17.45;8.60;;;;;;;10.32;100.00;100688.94;10355817;28;20045;-74
2021/05/11 04:33:14;;;;;;;15.55;8.05;;;;;;;10.46;100.00;100727.00;10351444;28;20030;-73
2021/05/11 04:38:14;;;;;;;19.25;8.65;;;;;;;10.51;100.00;100745.66;10354151;28;20061;-73
2021/05/11 04:43:16;;;;;;;20.58;8.68;;;;;;;10.44;100.00;100745.53;10343596;28;20058;-73
2021/05/11 04:48:17;;;;;;;16.33;8.63;;;;;;;10.45;100.00;100752.50;10353023;28;20045;-73
2021/05/11 04:53:19;;;;;;;14.57;8.68;;;;;;;10.52;100.00;100741.78;10350174;28;20109;-79
2021/05/11 04:58:20;;;;;;;23.27;9.43;;;;;;;10.54;100.00;100728.69;10355139;28;20036;-72
2021/05/11 05:03:25;;;;;;;21.60;10.02;;;;;;;10.73;100.00;100754.09;10348866;28;20508;-75
2021/05/11 05:08:26;;;;;;;20.20;11.48;;;;;;;10.86;100.00;100755.47;10354415;28;20477;-76
2021/05/11 05:13:27;;;;;;;16.17;10.80;;;;;;;10.85;100.00;100759.31;10349218;28;20056;-73
2021/05/11 05:18:28;;;;;;;17.58;10.18;;;;;;;10.86;100.00;100750.03;10349876;28;20726;-74
2021/05/11 05:23:32;;;;;;;22.83;11.93;;;;;;;10.72;100.00;100722.78;10350253;28;20474;-73
2021/05/11 05:28:37;;;;;;;19.63;9.95;;;;;;;10.95;100.00;100752.50;10351340;28;20038;-75
2021/05/11 05:33:39;;;;;;;16.33;9.98;;;;;;;10.75;100.00;100711.28;10349176;28;20722;-75
2021/05/11 05:38:41;;;;;;;20.75;10.57;;;;;;;10.57;100.00;100657.69;10345558;28;20438;-75
2021/05/11 05:43:41;;;;;;;24.13;9.77;;;;;;;10.95;100.00;100693.00;10350971;28;20062;-75
2021/05/11 05:48:43;;;;;;;17.40;9.90;;;;;;;11.14;100.00;100694.81;10349381;28;20038;-73
2021/05/11 05:53:44;;;;;;;20.70;10.00;;;;;;;11.79;100.00;100740.47;10350021;28;20118;-75
2021/05/11 05:58:44;;;;;;;22.58;10.50;;;;;;;12.10;100.00;100760.19;10347505;28;20057;-74
2021/05/11 06:08:47;;;;;;;17.65;8.13;;;;;;;12.35;100.00;100700.03;10358197;28;20088;-73
2021/05/11 06:14:06;;;;;;;21.17;9.38;;;;;;;12.91;100.00;100747.75;10357772;28;20038;-73
2021/05/11 06:19:07;;;;;;;18.40;8.57;;;;;;;13.08;99.48;100747.06;10359704;28;20089;-77
2021/05/11 06:24:08;;;;;;;17.35;8.40;;;;;;;13.36;98.36;100748.44;10341256;28;20096;-78
2021/05/11 06:29:10;;;;;;;13.98;7.57;;;;;;;13.37;95.05;100720.13;10356373;28;20052;-79
2021/05/11 06:34:11;;;;;;;17.63;7.50;;;;;;;13.79;93.67;100740.47;10356259;28;20030;-78
2021/05/11 06:39:13;;;;;;;16.30;7.13;;;;;;;13.58;89.25;100691.50;10355625;28;20041;-74
2021/05/11 06:44:25;;;;;;;18.63;7.28;;;;;;;13.60;89.36;100716.34;10353245;28;20054;-73
2021/05/11 06:54:26;;;;;;;16.92;7.78;;;;;;;13.83;87.46;100730.38;10353101;28;20153;-77
2021/05/11 06:59:27;;;;;;;20.48;8.07;;;;;;;14.26;87.04;100740.56;10351261;28;20113;-73
2021/05/11 07:04:27;;;;;;;28.98;8.18;;;;;;;14.47;85.92;100750.69;10353446;28;20506;-74
2021/05/11 07:09:50;;;;;;;14.02;7.15;;;;;;;14.66;84.22;100747.63;10355741;28;20516;-73
2021/05/11 07:14:50;;;;;;;18.80;8.07;;;;;;;14.73;83.69;100755.00;10365578;28;20077;-73
2021/05/11 07:19:52;;;;;;;19.95;7.72;;;;;;;14.87;83.28;100746.81;10351062;28;20117;-74
2021/05/11 07:24:55;;;;;;;25.90;9.07;;;;;;;15.22;82.07;100732.38;10358743;28;20125;-73
2021/05/11 07:29:58;;;;;;;21.65;7.32;;;;;;;16.90;74.30;100700.56;10365600;28;20123;-75
2021/05/11 07:35:01;;;;;;;17.55;6.80;;;;;;;19.01;63.87;100740.63;10356328;28;20038;-76
2021/05/11 07:40:04;;;;;;;22.60;7.03;;;;;;;20.08;58.01;100736.88;10351314;28;20046;-76
2021/05/11 07:45:06;;;;;;;13.77;6.47;;;;;;;20.37;56.90;100730.75;10348987;28;20194;-78
2021/05/11 08:14:26;;;;;;;13.87;5.47;;;;;;;23.56;46.60;100743.84;10353342;28;20038;-74
2021/05/11 08:16:16;;;;;;;13.27;5.43;;;;;;;23.02;46.72;100728.50;10351792;28;20368;-78
2021/05/11 08:31:54;;;;;;;15.80;5.20;;;;;;;24.95;42.28;100724.94;10354735;28;20451;-77
2021/05/11 08:36:54;;;;;;;14.87;6.37;;;;;;;25.26;40.09;100722.78;10353461;28;20026;-75
2021/05/11 08:41:55;;;;;;;13.40;5.10;;;;;;;24.33;41.21;100721.19;10352722;28;20121;-75
2021/05/11 08:46:55;;;;;;;13.65;5.47;;;;;;;23.86;40.71;100722.25;10340829;28;20064;-74
2021/05/11 08:52:12;;;;;;;14.68;6.10;;;;;;;23.73;42.00;100741.66;10347508;28;20496;-77
2021/05/11 10:50:51;;;;;;;9.02;5.15;;;;;;;20.77;51.25;100725.06;10350257;28;20038;-76
2021/05/11 10:55:52;;;;;;;14.88;5.03;;;;;;;20.92;49.29;100709.75;10355357;28;20103;-75
2021/05/11 11:00:57;;;;;;;11.60;3.95;;;;;;;21.56;47.07;100695.41;10359123;28;20042;-77
2021/05/11 11:06:02;;;;;;;10.90;4.45;;;;;;;21.85;45.02;100682.34;10356057;28;20034;-77
2021/05/11 11:11:14;;;;;;;10.18;4.28;;;;;;;22.64;44.48;100688.03;10359421;28;20046;-75
2021/05/11 11:16:15;;;;;;;7.60;1.70;;;;;;;22.72;40.74;100672.81;10338079;28;20037;-76
2021/05/11 11:21:34;;;;;;;9.63;1.98;;;;;;;22.29;39.64;100640.44;10333966;28;20042;-76
2021/05/11 11:26:39;;;;;;;17.23;4.20;;;;;;;22.57;42.74;100671.75;10359640;28;20030;-76
2021/05/11 11:31:41;;;;;;;6.78;2.53;;;;;;;22.30;43.35;100670.31;10352286;28;20030;-75
2021/05/11 11:37:00;;;;;;;5.63;2.25;;;;;;;22.07;40.26;100690.69;10352712;28;20065;-75
2021/05/11 11:42:05;;;;;;;4.95;1.70;;;;;;;22.18;38.73;100684.84;10353731;28;22032;-75
2021/05/11 11:47:07;;;;;;;6.93;1.98;;;;;;;21.79;39.32;100664.84;10352132;28;20505;-74
2021/05/11 11:52:11;;;;;;;;;;;;;;;21.96;40.11;100690.25;10355795;28;20042;-75
2021/05/11 12:03:03;;;;;;;10.88;3.63;;;;;;;21.22;43.22;100672.03;10349478;28;20639;-78
2021/05/11 12:08:22;;;;;;;8.48;2.38;;;;;;;20.87;44.47;100702.03;10354886;28;20109;-76
2021/05/11 12:13:34;;;;;;;11.20;3.13;;;;;;;20.89;44.74;100688.63;10354021;28;20171;-76
2021/05/11 12:18:35;;;;;;;15.73;5.30;;;;;;;20.59;46.68;100703.53;10353512;28;20030;-78
2021/05/11 12:23:36;;;;;;;15.70;6.07;;;;;;;20.56;47.94;100699.69;10347848;28;20747;-79
2021/05/11 12:28:39;;;;;;;11.38;5.22;;;;;;;20.53;47.30;100686.81;10351668;28;20045;-80
2021/05/11 12:33:42;;;;;;;11.00;3.22;;;;;;;20.02;46.42;100672.75;10355434;28;20102;-79
2021/05/11 12:38:43;;;;;;;9.70;3.15;;;;;;;20.75;44.62;100711.75;10352052;28;20381;-79
2021/05/11 12:43:49;;;;;;;9.90;4.13;;;;;;;20.76;45.12;100652.84;10351194;28;20042;-77
2021/05/11 12:48:53;;;;;;;10.43;3.50;;;;;;;21.24;44.47;100711.63;10348095;28;20037;-77
2021/05/11 12:53:59;;;;;;;10.90;2.50;;;;;;;21.30;43.40;100722.84;10365976;28;20034;-78
2021/05/11 13:20:08;;;;;;;13.93;6.70;;;;;;;20.18;50.41;100744.13;10356053;28;20040;-75
2021/05/11 13:25:29;;;;;;;15.90;6.63;;;;;;;19.16;53.22;100734.88;10370728;28;20103;-76
2021/05/11 13:35:39;;;;;;;9.80;3.83;;;;;;;18.32;53.62;100739.41;10362739;28;20042;-78
2021/05/11 13:40:39;;;;;;;12.32;2.33;;;;;;;18.01;51.00;100764.06;10343446;28;20050;-79
2021/05/11 13:45:40;;;;;;;9.73;1.42;;;;;;;17.56;49.01;100745.09;10356594;28;20049;-80
2021/05/11 13:51:01;;;;;;;4.68;1.00;;;;;;;17.40;48.97;100759.34;10357379;28;20062;-80
2021/05/11 14:06:33;;;;;;;3.88;1.02;;;;;;;17.55;50.37;100759.97;10346737;28;20178;-76
2021/05/11 14:11:35;;;;;;;6.00;1.25;;;;;;;17.62;50.71;100748.94;10355095;28;20053;-76
2021/05/11 14:16:36;;;;;;;7.17;1.70;;;;;;;17.52;51.16;100738.94;10356384;28;20478;-76
2021/05/11 14:21:37;;;;;;;9.82;2.33;;;;;;;16.79;50.56;100631.69;10356191;28;20046;-75
2021/05/11 14:26:37;;;;;;;3.67;0.80;;;;;;;17.61;51.89;100739.19;10355522;28;20030;-75
2021/05/11 14:31:38;;;;;;;3.97;1.00;;;;;;;17.58;52.38;100731.81;10367216;28;20328;-77
2021/05/11 14:36:38;;;;;;;5.65;1.02;;;;;;;17.71;51.95;100724.63;10360786;28;20029;-76
2021/05/11 14:41:39;;;;;;;2.75;0.80;;;;;;;17.53;51.44;100724.06;10364532;28;20034;-78
2021/05/11 14:46:40;;;;;;;2.70;0.80;;;;;;;17.92;50.20;100772.81;10359794;28;20054;-76
2021/05/11 14:51:40;;;;;;;2.72;0.95;;;;;;;17.94;50.21;100739.56;10357929;28;20049;-78
2021/05/11 14:56:41;;;;;;;4.70;1.10;;;;;;;18.06;50.18;100733.56;10358460;28;20034;-78
2021/05/11 15:01:41;;;;;;;6.78;1.67;;;;;;;18.40;49.12;100773.69;10348233;28;20463;-76
2021/05/11 15:06:41;;;;;;;7.20;1.70;;;;;;;18.16;50.77;100709.97;10359794;28;20038;-76
2021/05/11 15:11:42;;;;;;;7.20;1.02;;;;;;;18.42;49.75;100765.84;10354869;28;20034;-78
2021/05/11 15:16:42;;;;;;;4.25;1.35;;;;;;;18.30;51.30;100763.69;10337771;28;20119;-78
2021/05/11 15:21:43;;;;;;;2.88;1.20;;;;;;;17.86;52.60;100740.84;10357819;28;20478;-77
2021/05/11 15:26:43;;;;;;;9.55;1.70;;;;;;;18.04;54.08;100763.28;10354497;28;20037;-77
2021/05/11 15:31:45;;;;;;;3.25;1.23;;;;;;;17.72;55.97;100758.97;10356213;28;20046;-76
2021/05/11 15:36:45;;;;;;;5.93;1.25;;;;;;;17.50;57.08;100752.22;10354327;28;20467;-75
2021/05/11 15:41:45;;;;;;;4.90;1.52;;;;;;;17.12;59.32;100738.59;10361423;28;20299;-77
2021/05/11 15:46:46;;;;;;;6.47;1.77;;;;;;;17.37;60.60;100797.66;10341361;28;20499;-76
2021/05/11 15:51:46;;;;;;;8.88;1.88;;;;;;;16.85;61.06;100791.09;10354809;28;20048;-78
2021/05/11 15:56:47;;;;;;;5.20;1.45;;;;;;;16.96;61.74;100803.91;10361285;28;20046;-75
2021/05/11 16:01:47;;;;;;;5.22;1.55;;;;;;;17.20;61.03;100813.81;10361222;28;20505;-75
2021/05/11 16:06:48;;;;;;;7.88;1.75;;;;;;;16.93;60.76;100774.66;10365511;28;20104;-76
2021/05/11 16:11:48;;;;;;;4.05;1.70;;;;;;;17.03;60.44;100806.56;10364077;28;20042;-75
2021/05/11 16:16:49;;;;;;;5.75;1.77;;;;;;;17.02;60.80;100832.31;10361570;28;20045;-73
2021/05/11 16:21:50;;;;;;;4.22;1.48;;;;;;;16.88;60.90;100823.06;10362037;28;20029;-75
2021/05/11 16:26:50;;;;;;;4.45;1.55;;;;;;;16.99;61.64;100811.28;10362845;28;20029;-76
2021/05/11 16:31:51;;;;;;;3.60;1.50;;;;;;;16.99;61.99;100819.47;10365665;28;20045;-75
2021/05/11 16:36:51;;;;;;;12.07;1.77;;;;;;;16.98;62.33;100782.41;10360613;28;20152;-76
2021/05/11 16:41:51;;;;;;;4.70;1.60;;;;;;;17.59;58.89;100804.44;10350821;28;20052;-79
2021/05/11 16:46:52;;;;;;;6.75;1.90;;;;;;;17.53;58.88;100806.06;10361764;28;20077;-82
2021/05/11 16:51:53;;;;;;;5.13;1.23;;;;;;;17.58;58.19;100791.94;10359673;28;20033;-78
2021/05/11 16:56:53;;;;;;;5.75;1.38;;;;;;;17.51;57.85;100781.09;10359151;28;20045;-77
2021/05/11 17:01:54;;;;;;;7.80;2.97;;;;;;;17.45;57.03;100801.84;10340870;28;20038;-78
2021/05/11 17:06:55;;;;;;;8.27;1.70;;;;;;;17.00;59.53;100790.97;10357262;28;20501;-76
2021/05/11 17:11:55;;;;;;;4.82;2.03;;;;;;;16.23;62.86;100745.56;10361833;28;20045;-80
2021/05/11 17:16:56;;;;;;;5.97;2.00;;;;;;;16.56;64.31;100822.50;10359833;28;20046;-82
2021/05/11 17:21:56;;;;;;;6.90;3.00;;;;;;;16.60;64.69;100812.31;10357403;28;20128;-82
2021/05/11 17:26:57;;;;;;;7.05;3.28;;;;;;;16.22;65.21;100793.09;10357158;28;20061;-82
2021/05/11 17:31:58;;;;;;;8.27;3.35;;;;;;;16.08;65.31;100798.63;10332129;28;20196;-82
2021/05/11 17:36:58;;;;;;;10.60;3.50;;;;;;;16.63;65.84;100860.66;10344184;28;20544;-82
2021/05/11 17:42:01;;;;;;;18.40;7.82;;;;;;;16.42;72.87;100872.47;10362894;28;20034;-82
2021/05/11 17:47:02;;;;;;;20.10;10.70;;;;;;;15.83;76.08;100833.00;10357181;28;20057;-81
2021/05/11 17:52:03;;;;;;;22.50;12.00;;;;;;;15.30;80.30;100838.56;10357137;28;20042;-80
2021/05/11 17:57:04;;;;;;;27.92;11.35;;;;;;;15.48;81.60;100866.56;10335216;28;20382;-79
2021/05/11 18:02:05;;;;;;;19.35;9.38;;;;;;;15.27;79.75;100850.25;10355889;28;20041;-80
2021/05/11 18:07:05;;;;;;;21.17;9.25;;;;;;;15.13;79.79;100884.47;10336411;28;20050;-83
2021/05/11 18:12:07;;;;;;;23.98;10.55;;;;;;;15.09;79.74;100910.13;10373830;28;20056;-82
2021/05/11 18:17:07;;;;;;;18.83;10.57;;;;;;;14.91;80.11;100899.22;10357852;28;20042;-81
2021/05/11 18:22:08;;;;;;;23.60;11.88;;;;;;;14.72;80.61;100914.78;10342228;28;20634;-80
2021/05/11 18:27:09;;;;;;;24.30;12.68;;;;;;;14.81;80.64;100914.38;10359868;28;20034;-82
2021/05/11 18:32:09;;;;;;;23.20;13.57;;;;;;;14.83;79.74;100924.88;10344932;28;20222;-79
2021/05/11 18:42:19;;;;;;;21.85;13.00;;;;;;;14.67;78.84;100955.16;10376882;28;20037;-80
2021/05/11 18:47:20;;;;;;;25.65;13.95;;;;;;;14.26;78.94;100890.88;10327843;28;20057;-79
2021/05/11 18:52:21;;;;;;;25.13;14.18;;;;;;;14.72;78.68;100958.31;10332035;28;20572;-79
2021/05/11 18:57:21;;;;;;;24.08;12.68;;;;;;;14.70;77.26;100938.09;10345074;28;20290;-78
2021/05/11 19:02:22;;;;;;;20.15;11.45;;;;;;;14.60;76.96;100972.22;10365880;28;20099;-80
2021/05/11 19:07:22;;;;;;;17.90;10.32;;;;;;;14.56;76.49;100972.22;10320880;28;20026;-79
2021/05/11 19:12:23;;;;;;;18.10;10.05;;;;;;;14.56;76.05;100976.91;10364642;28;20042;-82
2021/05/11 19:17:23;;;;;;;18.55;10.55;;;;;;;14.27;75.58;100941.38;10362724;28;20092;-77
2021/05/11 19:22:24;;;;;;;17.88;8.45;;;;;;;14.47;73.33;100990.03;10359150;28;20037;-80
2021/05/11 19:27:25;;;;;;;13.93;6.80;;;;;;;14.00;72.59;100953.69;10350348;28;20042;-82
2021/05/11 19:32:26;;;;;;;13.88;7.32;;;;;;;13.91;73.98;100949.34;10356234;28;20087;-78
2021/05/11 19:37:26;;;;;;;13.38;7.80;;;;;;;13.91;75.33;100964.88;10356527;28;20111;-78
2021/05/11 19:42:27;;;;;;;18.50;7.43;;;;;;;14.10;75.97;101004.59;10359277;28;20117;-79
2021/05/11 19:47:28;;;;;;;17.48;7.82;;;;;;;13.76;76.60;100969.44;10350538;28;20683;-78
2021/05/11 19:52:28;;;;;;;18.50;7.90;;;;;;;13.79;78.96;101001.28;10353466;28;20041;-79
2021/05/11 19:57:29;;;;;;;13.38;6.22;;;;;;;13.64;79.72;100972.44;10360357;28;20105;-77
2021/05/11 20:02:29;;;;;;;14.20;5.88;;;;;;;13.42;82.35;100972.25;10358816;28;20068;-78
2021/05/11 20:07:30;;;;;;;11.52;4.22;;;;;;;13.57;81.34;101015.84;10357334;28;20025;-78
2021/05/11 20:12:31;;;;;;;11.73;3.10;;;;;;;13.49;81.37;101026.63;10370386;28;20048;-77
2021/05/11 20:17:32;;;;;;;10.98;2.05;;;;;;;13.63;80.49;101036.84;10353264;28;20096;-78
2021/05/11 20:22:32;;;;;;;14.98;1.92;;;;;;;13.58;80.18;101033.72;10339199;28;20413;-77
2021/05/11 20:27:33;;;;;;;8.30;1.77;;;;;;;13.44;79.30;101018.84;10367839;28;20046;-78
2021/05/11 20:32:34;;;;;;;7.60;1.98;;;;;;;13.41;78.34;101027.75;10356330;28;20140;-79
2021/05/11 20:37:41;;;;;;;7.80;2.08;;;;;;;13.39;77.87;101027.34;10348918;28;20066;-78
2021/05/11 20:42:42;;;;;;;12.07;2.63;;;;;;;13.42;77.88;101015.72;10347084;28;20042;-77
2021/05/11 20:47:42;;;;;;;11.43;2.35;;;;;;;13.48;77.76;101019.66;10350537;28;20049;-78
2021/05/11 20:52:43;;;;;;;10.73;2.00;;;;;;;13.53;77.92;101011.16;10351874;28;20054;-78
2021/05/11 20:57:43;;;;;;;11.55;1.95;;;;;;;13.08;78.56;100969.63;10349493;28;20037;-80
2021/05/11 21:02:44;;;;;;;9.40;1.88;;;;;;;13.28;76.72;101010.94;10336184;28;20049;-79
2021/05/11 21:07:46;;;;;;;8.32;1.83;;;;;;;13.22;74.90;101006.19;10355912;28;20064;-82
2021/05/11 21:12:46;;;;;;;7.60;1.67;;;;;;;13.11;74.27;101015.00;10354772;28;20045;-78
2021/05/11 21:17:47;;;;;;;8.50;1.80;;;;;;;13.24;72.73;101014.72;10353410;28;20042;-77
2021/05/11 21:22:48;;;;;;;7.13;1.60;;;;;;;13.02;70.32;100981.94;10350501;28;20485;-81
2021/05/11 21:27:48;;;;;;;8.30;1.90;;;;;;;13.31;70.35;101014.81;10336886;28;20553;-81
2021/05/11 21:32:49;;;;;;;12.70;1.85;;;;;;;13.43;70.45;101022.72;10361099;28;20459;-78
2021/05/11 21:37:51;;;;;;;8.85;2.38;;;;;;;13.13;70.09;100975.88;10353630;28;20049;-78
2021/05/11 21:42:51;;;;;;;10.73;1.50;;;;;;;13.46;71.48;101026.63;10355369;28;20040;-78
2021/05/11 21:47:52;;;;;;;7.47;1.58;;;;;;;13.14;70.79;100988.28;10326871;28;20052;-77
2021/05/11 21:52:52;;;;;;;12.77;1.77;;;;;;;13.40;71.30;101038.97;10334762;28;20046;-78
2021/05/11 21:57:53;;;;;;;9.82;2.75;;;;;;;13.35;71.35;101037.38;10361520;28;20398;-82
2021/05/11 22:02:54;;;;;;;11.52;1.95;;;;;;;13.27;71.94;101030.28;10337262;28;20034;-77
2021/05/11 22:07:55;;;;;;;9.18;2.03;;;;;;;13.24;71.27;101036.44;10347782;28;20054;-79
2021/05/11 22:12:56;;;;;;;9.32;2.22;;;;;;;13.29;71.48;101044.31;10356747;28;20030;-77
2021/05/11 22:17:56;;;;;;;9.00;2.10;;;;;;;13.32;72.16;101027.25;10357823;28;20029;-76
2021/05/11 22:22:59;;;;;;;8.65;2.13;;;;;;;12.91;74.16;100991.94;10357650;28;20033;-76
2021/05/11 22:27:59;;;;;;;8.85;2.13;;;;;;;12.73;75.66;100988.22;10353930;28;20398;-76
2021/05/11 22:33:05;;;;;;;8.77;2.95;;;;;;;12.95;77.41;101063.28;10366077;28;20083;-76
2021/05/11 22:38:06;;;;;;;7.03;1.80;;;;;;;12.76;79.59;101033.59;10352037;28;20054;-76
2021/05/11 22:43:15;;;;;;;13.98;2.65;;;;;;;12.51;81.63;101012.38;10350602;28;20050;-80
2021/05/11 22:48:16;;;;;;;13.93;3.60;;;;;;;12.30;84.25;100995.81;10361347;28;20544;-78
2021/05/11 22:53:20;;;;;;;13.35;2.63;;;;;;;12.55;85.10;101040.31;10362593;28;20542;-76
2021/05/11 22:58:20;;;;;;;11.65;2.92;;;;;;;12.42;86.43;101030.84;10363547;28;20041;-82
2021/05/11 23:03:22;;;;;;;7.93;2.40;;;;;;;12.28;88.10;101020.59;10346778;28;20367;-81
2021/05/11 23:08:22;;;;;;;10.55;2.70;;;;;;;11.99;88.18;100981.44;10357549;28;20057;-81
2021/05/11 23:13:23;;;;;;;15.63;2.85;;;;;;;12.11;88.76;101021.91;10354502;28;20187;-81
2021/05/11 23:18:28;;;;;;;8.15;2.28;;;;;;;12.00;90.43;101031.78;10333914;28;20042;-80
2021/05/11 23:23:30;;;;;;;8.95;2.80;;;;;;;11.64;91.28;100982.44;10350300;28;20053;-76
2021/05/11 23:28:32;;;;;;;9.88;3.13;;;;;;;11.79;92.03;101011.31;10363547;28;20506;-77
2021/05/11 23:33:32;;;;;;;10.38;3.20;;;;;;;11.70;93.25;101018.91;10326390;28;20045;-76
2021/05/11 23:38:32;;;;;;;16.30;3.15;;;;;;;11.64;93.88;101020.34;10354567;28;20038;-76
2021/05/11 23:43:33;;;;;;;7.55;2.72;;;;;;;11.12;95.33;100967.63;10362432;28;20038;-76
2021/05/11 23:48:33;;;;;;;13.70;3.83;;;;;;;11.30;97.09;101005.84;10343144;28;20049;-76
2021/05/11 23:53:34;;;;;;;8.73;3.38;;;;;;;11.34;98.09;101021.00;10362321;28;20120;-76
2021/05/11 23:58:34;;;;;;;10.18;3.08;;;;;;;11.34;98.18;101018.31;10361739;28;20500;-78
